Etusivu
METAR-TAF:

METAR-TAF

Lentoasemat :

Culiacán, Meksiko

Leveyspiiri: 24-49N, Pituuspiiri: 107-24W, korkeus merenpinnasta: 39 m

Tämänhetkinen sää

Tämä raportti tehtiin 48 minuuttia sitten, kello 09.48 UTC
Tuuli 8 kn etelästä
Lämpötila 22°C
Kosteus 100%
Ilmanpaine 1012 hPa
Näkyvyys: 11.3 km
Hajonneita pilviä 400 ft:n korkeudessa

METAR: MMCL 200948Z 18008KT 7SM BKN004 22/22 A2989 RMK 8/600

Aika: 04:36 (10:36 UTC)

Sääennuste

Tämä raportti tehtiin 5 tuntia ja 52 minuuttia sitten, kello 04.44 UTC
Ennuste voimassa 20. päivästä klo 06 UTC - 21. päivään klo 06 UTC
Tuuli kn pohjoisesta
Näkyvyys: 10 km
Hajanaisia pilviä 25000 ft:n korkeudessa
From 20. päivästä klo 1800 UTC
Tuuli 10 kn lounaasta
Näkyvyys: 10 km
Hajonneita pilviä 25000 ft:n korkeudessa
From 21. päivästä klo 0200 UTC
Tuuli kn pohjoisesta
Näkyvyys: 10 km
Hajonneita pilviä 25000 ft:n korkeudessa

TAF: MMCL 200444Z 2006/2106 00000KT P6SM SCT250 FM201800 22010KT P6SM BKN250 FM210200 00000KT P6SM BKN250

Säähavainnot ja -ennusteet yli 4000 lentoasemalta (METAR- ja TAF-raportit).

Käytössä olevat sääasemat on merkitty karttaan keltaisilla ja punaisilla pisteillä.

Aseta hiiri pisteen päälle nähdäksesi sääaseman nimen.

Klikkaa sitten nähdäksesi säähavainnot ja -ennusteet.

Kartan vaihtaminen: klikkaa mustalla rastilla varustettuja vihreitä pisteitä, niin voit zoomata sisään; viivalla varustettua vihreää pistettä, niin voit zoomata ulos tai vihreitä nuolia, niin pääset viereisille kartoille.


METAR-TAF: